createdAt,value
2022-08-19T00:00:00.492Z,18.50
2022-08-19T00:00:12.262Z,18.50
2022-08-19T00:01:15.148Z,18.56
2022-08-19T00:02:50.108Z,18.56
2022-08-19T00:04:25.377Z,18.56
2022-08-19T00:05:28.760Z,18.56
2022-08-19T00:06:31.709Z,18.50
2022-08-19T00:08:06.381Z,18.50
2022-08-19T00:09:09.085Z,18.50
2022-08-19T00:10:11.730Z,18.50
2022-08-19T00:11:53.665Z,18.50
2022-08-19T00:12:56.465Z,18.44
2022-08-19T00:13:59.302Z,18.44
2022-08-19T00:15:33.899Z,18.44
2022-08-19T00:16:36.812Z,18.44
2022-08-19T00:17:42.044Z,18.44
2022-08-19T00:19:16.746Z,18.38
2022-08-19T00:20:19.544Z,18.38
2022-08-19T00:21:22.285Z,18.38
2022-08-19T00:22:58.092Z,18.38
2022-08-19T00:24:01.132Z,18.38
2022-08-19T00:25:03.939Z,18.38
2022-08-19T00:26:55.173Z,18.38
2022-08-19T00:28:23.721Z,18.31
2022-08-19T00:29:27.815Z,18.31
2022-08-19T00:31:05.076Z,18.31
2022-08-19T00:32:07.797Z,18.31
2022-08-19T00:33:16.597Z,18.31
2022-08-19T00:34:54.449Z,18.31
2022-08-19T00:35:57.313Z,18.25
2022-08-19T00:37:00.238Z,18.25
2022-08-19T00:38:37.813Z,18.25
2022-08-19T00:39:41.178Z,18.25
2022-08-19T00:40:47.041Z,18.25
2022-08-19T00:42:22.866Z,18.25
2022-08-19T00:43:25.796Z,18.25
2022-08-19T00:44:28.411Z,18.25
2022-08-19T00:46:02.774Z,18.25
2022-08-19T00:47:05.629Z,18.25
2022-08-19T00:48:15.178Z,18.25
2022-08-19T00:49:49.783Z,18.25
2022-08-19T00:50:52.630Z,18.19
2022-08-19T00:51:55.468Z,18.19
2022-08-19T00:53:30.078Z,18.19
2022-08-19T00:54:32.910Z,18.19
2022-08-19T00:55:38.981Z,18.19
2022-08-19T00:57:16.649Z,18.19
2022-08-19T00:58:19.496Z,18.19
2022-08-19T01:00:00.880Z,18.19
2022-08-19T01:00:12.600Z,18.19
2022-08-19T01:01:15.294Z,18.19
2022-08-19T01:02:18.654Z,18.19
2022-08-19T01:03:56.966Z,18.19
2022-08-19T01:05:01.220Z,18.13
2022-08-19T01:06:03.946Z,18.13
2022-08-19T01:07:49.993Z,18.06
2022-08-19T01:08:52.980Z,18.06
2022-08-19T01:09:55.755Z,18.00
2022-08-19T01:11:30.584Z,18.00
2022-08-19T01:12:33.215Z,18.00
2022-08-19T01:13:45.619Z,18.00
2022-08-19T01:15:24.670Z,17.94
2022-08-19T01:16:27.472Z,17.94
2022-08-19T01:17:30.104Z,17.94
2022-08-19T01:19:04.787Z,17.94
2022-08-19T01:20:19.206Z,17.88
2022-08-19T01:21:22.020Z,17.88
2022-08-19T01:23:09.221Z,17.88
2022-08-19T01:24:11.951Z,17.88
2022-08-19T01:25:26.577Z,17.81
2022-08-19T01:27:07.557Z,17.81
2022-08-19T01:28:33.836Z,17.81
2022-08-19T01:29:42.123Z,17.81
2022-08-19T01:31:27.214Z,17.81
2022-08-19T01:32:33.769Z,17.81
2022-08-19T01:33:36.958Z,17.81
2022-08-19T01:35:11.791Z,17.75
2022-08-19T01:36:14.520Z,17.75
2022-08-19T01:37:25.015Z,17.81
2022-08-19T01:39:01.949Z,17.75
2022-08-19T01:40:09.244Z,17.75
2022-08-19T01:41:12.175Z,17.75
2022-08-19T01:42:46.993Z,17.75
2022-08-19T01:44:03.303Z,17.69
2022-08-19T01:45:20.816Z,17.69
2022-08-19T01:47:00.028Z,17.69
2022-08-19T01:48:02.778Z,17.69
2022-08-19T01:49:05.698Z,17.69
2022-08-19T01:50:40.582Z,17.63
2022-08-19T01:51:43.374Z,17.63
2022-08-19T01:52:46.079Z,17.63
2022-08-19T01:54:42.756Z,17.56
2022-08-19T01:55:45.536Z,17.56
2022-08-19T01:56:48.185Z,17.56
2022-08-19T01:58:22.776Z,17.50
2022-08-19T01:59:25.612Z,17.50
2022-08-19T02:00:12.165Z,17.50
2022-08-19T02:01:14.893Z,17.50
2022-08-19T02:02:23.310Z,17.50
2022-08-19T02:04:02.116Z,17.44
2022-08-19T02:05:04.954Z,17.44
2022-08-19T02:06:08.700Z,17.44
2022-08-19T02:07:50.484Z,17.44
2022-08-19T02:08:53.064Z,17.44
2022-08-19T02:10:00.055Z,17.50
2022-08-19T02:11:41.233Z,17.50
2022-08-19T02:12:43.987Z,17.50
2022-08-19T02:13:47.938Z,17.50
2022-08-19T02:15:22.593Z,17.50
2022-08-19T02:16:25.309Z,17.50
2022-08-19T02:17:28.227Z,17.50
2022-08-19T02:19:08.359Z,17.50
2022-08-19T02:20:14.272Z,17.56
2022-08-19T02:21:17.349Z,17.50
2022-08-19T02:22:52.215Z,17.50
2022-08-19T02:24:01.864Z,17.50
2022-08-19T02:25:04.859Z,17.50
2022-08-19T02:26:39.419Z,17.50
2022-08-19T02:27:42.434Z,17.56
2022-08-19T02:28:53.331Z,17.56
2022-08-19T02:30:28.832Z,17.50
2022-08-19T02:31:31.549Z,17.44
2022-08-19T02:32:34.248Z,17.44
2022-08-19T02:34:18.916Z,17.44
2022-08-19T02:35:21.837Z,17.38
2022-08-19T02:36:24.503Z,17.38
2022-08-19T02:38:15.832Z,17.31
2022-08-19T02:39:30.002Z,17.25
2022-08-19T02:40:33.229Z,17.25
2022-08-19T02:42:12.825Z,17.25
2022-08-19T02:43:17.506Z,17.25
2022-08-19T02:45:06.288Z,17.25
2022-08-19T02:46:41.040Z,17.25
2022-08-19T02:47:44.342Z,17.25
2022-08-19T02:49:02.117Z,17.25
2022-08-19T02:50:41.534Z,17.25
2022-08-19T02:51:56.380Z,17.19
2022-08-19T02:52:59.325Z,17.19
2022-08-19T02:54:33.816Z,17.19
2022-08-19T02:55:45.791Z,17.19
2022-08-19T02:56:49.071Z,17.19
2022-08-19T02:58:24.037Z,17.19
2022-08-19T02:59:29.412Z,17.19
2022-08-19T03:00:11.988Z,17.19
2022-08-19T03:01:20.126Z,17.13
2022-08-19T03:02:23.728Z,17.06
2022-08-19T03:03:58.414Z,17.06
2022-08-19T03:05:01.791Z,17.00
2022-08-19T03:06:37.559Z,17.00
2022-08-19T03:08:23.410Z,17.00
2022-08-19T03:09:26.056Z,17.00
2022-08-19T03:10:28.750Z,16.94
2022-08-19T03:12:03.176Z,16.94
2022-08-19T03:13:05.838Z,16.94
2022-08-19T03:14:08.707Z,16.94
2022-08-19T03:15:43.416Z,16.94
2022-08-19T03:16:46.282Z,16.94
2022-08-19T03:17:48.907Z,16.94
2022-08-19T03:19:29.937Z,16.94
2022-08-19T03:20:32.640Z,16.94
2022-08-19T03:21:35.561Z,16.94
2022-08-19T03:23:10.197Z,16.94
2022-08-19T03:24:13.014Z,16.94
2022-08-19T03:25:16.824Z,16.88
2022-08-19T03:27:03.232Z,16.94
2022-08-19T03:28:14.825Z,16.94
2022-08-19T03:29:30.341Z,16.94
2022-08-19T03:31:41.873Z,16.94
2022-08-19T03:33:24.914Z,16.94
2022-08-19T03:34:32.501Z,16.94
2022-08-19T03:36:06.995Z,16.94
2022-08-19T03:37:10.110Z,16.94
2022-08-19T03:38:15.851Z,16.94
2022-08-19T03:39:50.499Z,16.94
2022-08-19T03:40:57.155Z,16.94
2022-08-19T03:42:38.168Z,16.94
2022-08-19T03:44:25.942Z,16.88
2022-08-19T03:45:28.758Z,16.88
2022-08-19T03:46:31.722Z,16.88
2022-08-19T03:48:11.431Z,16.88
2022-08-19T03:49:14.750Z,16.88
2022-08-19T03:50:20.673Z,16.81
2022-08-19T03:52:05.897Z,16.81
2022-08-19T03:53:08.744Z,16.81
2022-08-19T03:54:11.451Z,16.81
2022-08-19T03:55:46.129Z,16.81
2022-08-19T03:56:48.904Z,16.81
2022-08-19T03:57:51.564Z,16.81
2022-08-19T03:59:32.503Z,16.75
2022-08-19T04:00:14.033Z,16.75
2022-08-19T04:01:16.913Z,16.75
2022-08-19T04:02:32.169Z,16.75
2022-08-19T04:04:23.961Z,16.69
2022-08-19T04:05:41.536Z,16.69
2022-08-19T04:06:45.559Z,16.69
2022-08-19T04:07:48.557Z,16.69
2022-08-19T04:09:31.436Z,16.69
2022-08-19T04:10:34.457Z,16.69
2022-08-19T04:11:43.380Z,16.63
2022-08-19T04:13:19.137Z,16.63
2022-08-19T04:14:22.126Z,16.63
2022-08-19T04:15:24.971Z,16.63
2022-08-19T04:17:10.024Z,16.63
2022-08-19T04:18:13.197Z,16.63
2022-08-19T04:19:21.906Z,16.63
2022-08-19T04:20:56.998Z,16.69
2022-08-19T04:22:00.007Z,16.69
2022-08-19T04:23:03.791Z,16.69
2022-08-19T04:24:44.220Z,16.63
2022-08-19T04:25:48.757Z,16.63
2022-08-19T04:26:55.367Z,16.63
2022-08-19T04:28:30.154Z,16.63
2022-08-19T04:29:34.756Z,16.63
2022-08-19T04:30:37.837Z,16.63
2022-08-19T04:32:12.743Z,16.63
2022-08-19T04:33:15.749Z,16.63
2022-08-19T04:34:25.759Z,16.63
2022-08-19T04:36:37.638Z,16.56
2022-08-19T04:37:40.412Z,16.63
2022-08-19T04:38:43.251Z,16.56
2022-08-19T04:40:18.963Z,16.56
2022-08-19T04:41:21.983Z,16.56
2022-08-19T04:42:30.631Z,16.56
2022-08-19T04:44:06.213Z,16.56
2022-08-19T04:45:12.477Z,16.56
2022-08-19T04:46:39.597Z,16.56
2022-08-19T04:49:48.212Z,16.56
2022-08-19T04:50:50.972Z,16.50
2022-08-19T04:51:53.598Z,16.56
2022-08-19T04:53:28.924Z,16.50
2022-08-19T04:54:38.401Z,16.50
2022-08-19T04:55:43.130Z,16.50
2022-08-19T04:57:17.960Z,16.50
2022-08-19T04:58:20.778Z,16.50
2022-08-19T04:59:23.646Z,16.50
2022-08-19T05:00:12.236Z,16.50
2022-08-19T05:01:18.688Z,16.50
2022-08-19T05:02:23.030Z,16.50
2022-08-19T05:04:02.364Z,16.50
2022-08-19T05:05:08.099Z,16.50
2022-08-19T05:06:25.297Z,16.50
2022-08-19T05:08:06.315Z,16.50
2022-08-19T05:09:24.167Z,16.50
2022-08-19T05:10:56.032Z,16.50
2022-08-19T05:12:38.782Z,16.50
2022-08-19T05:13:41.956Z,16.50
2022-08-19T05:14:44.868Z,16.50
2022-08-19T05:16:19.665Z,16.50
2022-08-19T05:17:28.431Z,16.44
2022-08-19T05:18:36.230Z,16.44
2022-08-19T05:20:13.924Z,16.44
2022-08-19T05:21:18.394Z,16.44
2022-08-19T05:22:21.279Z,16.44
2022-08-19T05:24:08.411Z,16.44
2022-08-19T05:25:31.430Z,16.44
2022-08-19T05:26:35.989Z,16.44
2022-08-19T05:28:10.985Z,16.50
2022-08-19T05:29:16.725Z,16.50
2022-08-19T05:30:46.055Z,16.50
2022-08-19T05:32:22.373Z,16.50
2022-08-19T05:33:28.784Z,16.56
2022-08-19T05:34:31.617Z,16.56
2022-08-19T05:36:09.732Z,16.56
2022-08-19T05:37:12.738Z,16.56
2022-08-19T05:38:15.727Z,16.63
2022-08-19T05:39:51.538Z,16.63
2022-08-19T05:40:57.608Z,16.63
2022-08-19T05:42:00.574Z,16.63
2022-08-19T05:43:41.553Z,16.69
2022-08-19T05:44:44.446Z,16.69
2022-08-19T05:45:48.567Z,16.69
2022-08-19T05:47:23.532Z,16.75
2022-08-19T05:48:28.347Z,16.75
2022-08-19T05:49:35.196Z,16.75
2022-08-19T05:51:12.063Z,16.81
2022-08-19T05:52:25.787Z,16.81
2022-08-19T05:53:32.553Z,16.88
2022-08-19T05:55:07.503Z,16.94
2022-08-19T05:56:10.384Z,16.94
2022-08-19T05:57:13.466Z,16.94
2022-08-19T05:58:48.809Z,17.00
2022-08-19T05:59:58.278Z,17.00
2022-08-19T06:00:11.795Z,17.00
2022-08-19T06:01:20.042Z,17.06
2022-08-19T06:02:23.116Z,17.13
2022-08-19T06:03:59.579Z,17.13
2022-08-19T06:05:03.905Z,17.19
2022-08-19T06:06:21.200Z,17.19
2022-08-19T06:07:59.565Z,17.25
2022-08-19T06:09:14.501Z,17.25
2022-08-19T06:10:29.290Z,17.31
2022-08-19T06:12:03.954Z,17.38
2022-08-19T06:13:06.946Z,17.38
2022-08-19T06:14:16.654Z,17.44
2022-08-19T06:16:12.805Z,17.56
2022-08-19T06:17:15.924Z,17.56
2022-08-19T06:18:18.849Z,17.63
2022-08-19T06:19:53.659Z,17.69
2022-08-19T06:21:29.090Z,17.75
2022-08-19T06:22:31.872Z,17.75
2022-08-19T06:24:10.496Z,17.81
2022-08-19T06:25:13.409Z,17.88
2022-08-19T06:26:22.460Z,17.88
2022-08-19T06:28:14.517Z,18.00
2022-08-19T06:29:23.864Z,18.06
2022-08-19T06:30:27.416Z,18.13
2022-08-19T06:32:02.074Z,18.19
2022-08-19T06:33:04.879Z,18.25
2022-08-19T06:34:08.453Z,18.25
2022-08-19T06:36:46.369Z,18.44
2022-08-19T06:37:49.174Z,18.44
2022-08-19T06:39:26.327Z,18.56
2022-08-19T06:40:30.096Z,18.63
2022-08-19T06:41:33.333Z,18.69
2022-08-19T06:43:42.263Z,18.88
2022-08-19T06:44:55.045Z,18.94
2022-08-19T06:46:10.631Z,19.00
2022-08-19T06:48:09.309Z,19.13
2022-08-19T06:49:26.480Z,19.19
2022-08-19T06:50:39.342Z,19.19
2022-08-19T06:52:30.924Z,19.25
2022-08-19T06:53:45.384Z,19.38
2022-08-19T06:55:31.212Z,19.44
2022-08-19T06:57:09.189Z,19.56
2022-08-19T06:58:13.789Z,19.63
2022-08-19T06:59:18.361Z,19.69
2022-08-19T07:00:13.195Z,19.75
2022-08-19T07:01:16.674Z,19.88
2022-08-19T07:02:19.747Z,19.88
2022-08-19T07:04:12.319Z,20.00
2022-08-19T07:05:17.519Z,20.06
2022-08-19T07:06:43.753Z,20.13
2022-08-19T07:08:49.089Z,20.19
2022-08-19T07:10:00.275Z,20.19
2022-08-19T07:11:09.388Z,20.25
2022-08-19T07:12:57.440Z,20.44
2022-08-19T07:14:00.346Z,20.50
2022-08-19T07:15:11.540Z,20.63
2022-08-19T07:17:04.235Z,20.69
2022-08-19T07:18:11.958Z,20.75
2022-08-19T07:19:19.389Z,20.81
2022-08-19T07:21:03.677Z,21.00
2022-08-19T07:22:13.127Z,21.00
2022-08-19T07:23:16.714Z,21.19
2022-08-19T07:24:53.371Z,21.25
2022-08-19T07:26:07.372Z,21.31
2022-08-19T07:27:26.902Z,21.38
2022-08-19T07:29:21.126Z,21.38
2022-08-19T07:30:36.927Z,21.44
2022-08-19T07:31:46.774Z,21.50
2022-08-19T07:33:31.261Z,21.56
2022-08-19T07:34:39.991Z,21.63
2022-08-19T07:35:43.266Z,21.63
2022-08-19T07:37:18.337Z,21.63
2022-08-19T07:38:25.295Z,21.63
2022-08-19T07:39:31.619Z,21.63
2022-08-19T07:41:07.126Z,21.69
2022-08-19T07:42:10.282Z,21.75
2022-08-19T07:43:17.325Z,21.81
2022-08-19T07:44:58.896Z,21.81
2022-08-19T07:46:01.767Z,21.88
2022-08-19T07:47:47.490Z,21.88
2022-08-19T07:49:26.276Z,22.00
2022-08-19T07:50:28.973Z,22.00
2022-08-19T07:51:36.697Z,22.06
2022-08-19T07:53:12.171Z,22.19
2022-08-19T07:54:20.162Z,22.25
2022-08-19T07:55:42.295Z,22.25
2022-08-19T07:57:18.271Z,22.38
2022-08-19T07:58:21.297Z,22.38
2022-08-19T07:59:24.397Z,22.38
2022-08-19T08:00:12.037Z,22.38
2022-08-19T08:01:21.910Z,22.38
2022-08-19T08:02:33.979Z,22.44
2022-08-19T08:04:09.430Z,22.50
2022-08-19T08:05:12.278Z,22.56
2022-08-19T08:06:19.039Z,22.63
2022-08-19T08:07:53.985Z,22.63
2022-08-19T08:09:02.727Z,22.75
2022-08-19T08:10:21.062Z,22.81
2022-08-19T08:12:33.225Z,22.88
2022-08-19T08:14:04.437Z,22.94
2022-08-19T08:15:43.829Z,23.06
2022-08-19T08:17:49.283Z,23.06
2022-08-19T08:18:55.209Z,23.06
2022-08-19T08:20:16.941Z,23.13
2022-08-19T08:21:51.820Z,23.25
2022-08-19T08:22:54.781Z,23.25
2022-08-19T08:23:57.686Z,23.31
2022-08-19T08:25:36.520Z,23.44
2022-08-19T08:26:46.895Z,23.50
2022-08-19T08:28:07.684Z,23.56
2022-08-19T08:29:55.300Z,23.63
2022-08-19T08:31:09.317Z,23.56
2022-08-19T08:32:14.027Z,23.56
2022-08-19T08:34:04.630Z,23.63
2022-08-19T08:35:07.586Z,23.63
2022-08-19T08:36:10.782Z,23.63
2022-08-19T08:37:45.745Z,23.75
2022-08-19T08:38:49.589Z,23.81
2022-08-19T08:39:52.585Z,23.88
2022-08-19T08:41:31.455Z,23.94
2022-08-19T08:42:34.491Z,24.00
2022-08-19T08:43:37.331Z,24.06
2022-08-19T08:45:12.166Z,24.19
2022-08-19T08:46:34.104Z,24.19
2022-08-19T08:47:42.709Z,24.31
2022-08-19T08:49:40.264Z,24.31
2022-08-19T08:50:45.139Z,24.31
2022-08-19T08:51:59.346Z,24.31
2022-08-19T08:53:42.070Z,24.31
2022-08-19T08:54:55.419Z,24.38
2022-08-19T08:56:11.946Z,24.44
2022-08-19T08:57:48.198Z,24.44
2022-08-19T08:58:54.577Z,24.44
2022-08-19T08:59:57.757Z,24.50
2022-08-19T09:00:15.338Z,24.56
2022-08-19T09:01:18.969Z,24.56
2022-08-19T09:02:27.813Z,24.63
2022-08-19T09:04:12.256Z,24.63
2022-08-19T09:05:16.365Z,24.56
2022-08-19T09:06:36.475Z,24.63
2022-08-19T09:08:47.724Z,24.56
2022-08-19T09:10:03.756Z,24.56
2022-08-19T09:11:42.675Z,24.56
2022-08-19T09:13:29.074Z,24.63
2022-08-19T09:15:50.387Z,24.75
2022-08-19T09:17:27.772Z,24.81
2022-08-19T09:18:36.463Z,24.75
2022-08-19T09:19:41.247Z,24.75
2022-08-19T09:21:25.725Z,24.63
2022-08-19T09:22:33.426Z,24.56
2022-08-19T09:23:37.533Z,24.69
2022-08-19T09:25:17.877Z,24.69
2022-08-19T09:26:35.270Z,24.69
2022-08-19T09:28:27.578Z,24.75
2022-08-19T09:30:08.928Z,24.88
2022-08-19T09:31:13.125Z,24.88
2022-08-19T09:32:26.060Z,24.94
2022-08-19T09:34:05.915Z,25.06
2022-08-19T09:35:26.485Z,25.13
2022-08-19T09:37:11.718Z,25.13
2022-08-19T09:38:56.812Z,25.13
2022-08-19T09:40:24.757Z,25.13
2022-08-19T09:41:35.278Z,25.06
2022-08-19T09:43:48.241Z,25.19
2022-08-19T09:44:53.280Z,25.19
2022-08-19T09:46:02.305Z,25.25
2022-08-19T09:47:41.880Z,25.25
2022-08-19T09:48:53.942Z,25.25
2022-08-19T09:50:05.274Z,25.31
2022-08-19T09:52:02.734Z,25.31
2022-08-19T09:53:13.485Z,25.31
2022-08-19T09:54:17.745Z,25.44
2022-08-19T09:56:11.868Z,25.50
2022-08-19T09:57:17.289Z,25.50
2022-08-19T09:58:23.501Z,25.50
2022-08-19T10:00:01.280Z,25.50
2022-08-19T10:00:12.262Z,25.50
2022-08-19T10:01:15.160Z,25.50
2022-08-19T10:02:22.425Z,25.50
2022-08-19T10:04:20.202Z,25.50
2022-08-19T10:05:26.814Z,25.50
2022-08-19T10:06:38.216Z,25.44
2022-08-19T10:08:26.406Z,25.44
2022-08-19T10:09:43.883Z,25.56
2022-08-19T10:10:49.805Z,25.56
2022-08-19T10:13:12.783Z,25.63
2022-08-19T10:14:15.755Z,25.69
2022-08-19T10:15:20.707Z,25.69
2022-08-19T10:17:27.430Z,25.81
2022-08-19T10:18:49.721Z,25.94
2022-08-19T10:20:06.721Z,25.94
2022-08-19T10:21:43.856Z,25.94
2022-08-19T10:22:56.225Z,26.00
2022-08-19T10:23:59.910Z,26.00
2022-08-19T10:25:36.565Z,26.06
2022-08-19T10:26:41.465Z,26.06
2022-08-19T10:27:51.694Z,26.06
2022-08-19T10:29:46.501Z,26.00
2022-08-19T10:30:59.878Z,25.94
2022-08-19T10:32:46.516Z,25.94
2022-08-19T10:35:24.154Z,26.00
2022-08-19T10:36:56.247Z,26.00
2022-08-19T10:38:33.109Z,26.00
2022-08-19T10:40:30.912Z,26.13
2022-08-19T10:41:33.976Z,26.19
2022-08-19T10:42:36.899Z,26.38
2022-08-19T10:44:11.883Z,26.44
2022-08-19T10:45:26.781Z,26.56
2022-08-19T10:46:51.764Z,26.56
2022-08-19T10:48:50.473Z,26.63
2022-08-19T10:49:54.071Z,26.69
2022-08-19T10:51:09.275Z,26.75
2022-08-19T10:53:14.101Z,26.81
2022-08-19T10:54:17.842Z,26.75
2022-08-19T10:55:40.379Z,26.75
2022-08-19T10:57:15.251Z,26.69
2022-08-19T10:58:51.734Z,26.69
2022-08-19T10:59:54.559Z,26.69
2022-08-19T11:00:12.044Z,26.69
2022-08-19T11:01:15.184Z,26.69
2022-08-19T11:02:18.505Z,26.69
2022-08-19T11:03:55.658Z,26.81
2022-08-19T11:05:12.349Z,26.75
2022-08-19T11:06:25.851Z,26.63
2022-08-19T11:08:01.235Z,26.31
2022-08-19T11:09:21.302Z,26.31
2022-08-19T11:10:31.189Z,26.31
2022-08-19T11:12:14.301Z,26.38
2022-08-19T11:13:17.284Z,26.56
2022-08-19T11:14:20.384Z,26.56
2022-08-19T11:15:57.855Z,26.69
2022-08-19T11:17:05.261Z,26.75
2022-08-19T11:18:08.308Z,26.81
2022-08-19T11:19:48.215Z,26.81
2022-08-19T11:20:51.046Z,26.88
2022-08-19T11:21:53.950Z,26.94
2022-08-19T11:23:51.457Z,27.00
2022-08-19T11:24:56.328Z,27.06
2022-08-19T11:25:59.562Z,27.13
2022-08-19T11:27:34.393Z,27.19
2022-08-19T11:28:37.319Z,27.25
2022-08-19T11:29:40.791Z,27.31
2022-08-19T11:31:19.720Z,27.31
2022-08-19T11:32:26.491Z,27.31
2022-08-19T11:33:35.208Z,27.25
2022-08-19T11:35:13.975Z,27.31
2022-08-19T11:36:16.797Z,27.25
2022-08-19T11:37:19.576Z,27.25
2022-08-19T11:38:55.978Z,27.31
2022-08-19T11:39:59.267Z,27.31
2022-08-19T11:41:03.255Z,27.31
2022-08-19T11:42:38.291Z,27.38
2022-08-19T11:43:41.226Z,27.44
2022-08-19T11:44:44.254Z,27.44
2022-08-19T11:46:19.053Z,27.44
2022-08-19T11:47:22.138Z,27.50
2022-08-19T11:48:25.046Z,27.50
2022-08-19T11:50:00.446Z,27.50
2022-08-19T11:51:03.424Z,27.56
2022-08-19T11:52:06.225Z,27.69
2022-08-19T11:53:44.775Z,27.69
2022-08-19T11:54:47.739Z,27.69
2022-08-19T11:55:50.594Z,27.69
2022-08-19T11:57:25.443Z,27.69
2022-08-19T11:58:28.896Z,27.69
2022-08-19T11:59:31.762Z,27.69
2022-08-19T12:00:12.745Z,27.69
2022-08-19T12:01:18.089Z,27.69
2022-08-19T12:02:21.109Z,27.69
2022-08-19T12:03:56.020Z,27.69
2022-08-19T12:05:00.916Z,27.63
2022-08-19T12:06:09.920Z,27.63
2022-08-19T12:07:45.029Z,27.63
2022-08-19T12:08:47.995Z,27.63
2022-08-19T12:09:50.753Z,27.56
2022-08-19T12:11:34.713Z,27.56
2022-08-19T12:12:37.881Z,27.38
2022-08-19T12:13:50.681Z,27.38
2022-08-19T12:15:27.217Z,27.44
2022-08-19T12:16:34.551Z,27.50
2022-08-19T12:17:48.811Z,27.56
2022-08-19T12:19:24.137Z,27.63
2022-08-19T12:20:27.293Z,27.69
2022-08-19T12:21:33.750Z,27.69
2022-08-19T12:23:08.819Z,27.75
2022-08-19T12:24:11.617Z,27.75
2022-08-19T12:25:14.378Z,27.69
2022-08-19T12:26:52.823Z,27.69
2022-08-19T12:28:39.208Z,27.63
2022-08-19T12:29:41.908Z,27.63
2022-08-19T12:31:17.628Z,27.69
2022-08-19T12:32:21.720Z,27.69
2022-08-19T12:33:24.692Z,27.69
2022-08-19T12:34:59.509Z,27.94
2022-08-19T12:36:02.641Z,28.06
2022-08-19T12:37:05.732Z,28.13
2022-08-19T12:38:43.829Z,28.19
2022-08-19T12:39:51.373Z,28.25
2022-08-19T12:40:59.626Z,28.25
2022-08-19T12:42:40.979Z,28.25
2022-08-19T12:43:48.064Z,28.19
2022-08-19T12:45:03.835Z,28.13
2022-08-19T12:46:46.521Z,28.06
2022-08-19T12:47:56.602Z,28.13
2022-08-19T12:49:55.518Z,28.13
2022-08-19T12:51:36.762Z,28.06
2022-08-19T12:52:39.749Z,28.13
2022-08-19T12:53:42.729Z,28.13
2022-08-19T12:55:17.475Z,28.25
2022-08-19T12:56:23.275Z,28.25
2022-08-19T12:57:32.530Z,28.25
2022-08-19T12:59:13.380Z,28.25
2022-08-19T13:00:12.438Z,28.31
2022-08-19T13:01:15.707Z,28.38
2022-08-19T13:02:21.193Z,28.38
2022-08-19T13:04:01.713Z,28.50
2022-08-19T13:05:04.584Z,28.50
2022-08-19T13:06:07.904Z,28.56
2022-08-19T13:07:44.345Z,28.50
2022-08-19T13:08:47.741Z,28.44
2022-08-19T13:09:56.840Z,28.38
2022-08-19T13:11:33.656Z,28.13
2022-08-19T13:12:36.708Z,28.13
2022-08-19T13:13:39.982Z,28.13
2022-08-19T13:15:19.419Z,28.13
2022-08-19T13:16:24.641Z,28.25
2022-08-19T13:17:27.769Z,28.31
2022-08-19T13:19:03.674Z,28.38
2022-08-19T13:20:06.663Z,28.38
2022-08-19T13:21:11.562Z,28.38
2022-08-19T13:22:55.484Z,28.44
2022-08-19T13:23:58.647Z,28.44
2022-08-19T13:25:08.571Z,28.44
2022-08-19T13:26:43.385Z,28.44
2022-08-19T13:27:46.553Z,28.44
2022-08-19T13:28:54.899Z,28.44
2022-08-19T13:30:29.795Z,28.50
2022-08-19T13:31:32.827Z,28.50
2022-08-19T13:32:35.886Z,28.56
2022-08-19T13:34:12.787Z,28.56
2022-08-19T13:35:17.445Z,28.63
2022-08-19T13:36:20.468Z,28.69
2022-08-19T13:37:55.455Z,28.69
2022-08-19T13:39:03.827Z,28.75
2022-08-19T13:40:06.982Z,28.81
2022-08-19T13:41:52.722Z,28.88
2022-08-19T13:42:55.701Z,28.88
2022-08-19T13:44:14.878Z,28.88
2022-08-19T13:45:50.091Z,28.81
2022-08-19T13:46:54.276Z,28.75
2022-08-19T13:47:59.646Z,28.50
2022-08-19T13:49:37.453Z,28.31
2022-08-19T13:50:40.525Z,28.25
2022-08-19T13:51:43.512Z,28.19
2022-08-19T13:53:18.556Z,28.06
2022-08-19T13:54:23.092Z,28.00
2022-08-19T13:55:26.119Z,27.94
2022-08-19T13:57:06.683Z,27.88
2022-08-19T13:58:09.657Z,27.81
2022-08-19T13:59:12.496Z,27.75
2022-08-19T14:00:12.073Z,27.75
2022-08-19T14:01:15.283Z,27.75
2022-08-19T14:02:22.209Z,27.69
2022-08-19T14:03:59.466Z,27.69
2022-08-19T14:05:02.674Z,27.69
2022-08-19T14:06:05.816Z,27.69
2022-08-19T14:07:41.895Z,27.75
2022-08-19T14:08:46.396Z,27.75
2022-08-19T14:09:49.595Z,27.69
2022-08-19T14:11:24.518Z,27.69
2022-08-19T14:12:28.846Z,27.69
2022-08-19T14:13:31.957Z,27.69
2022-08-19T14:15:08.156Z,27.69
2022-08-19T14:16:11.224Z,27.69
2022-08-19T14:17:14.149Z,27.63
2022-08-19T14:18:48.933Z,27.44
2022-08-19T14:19:52.004Z,27.38
2022-08-19T14:21:06.752Z,27.25
2022-08-19T14:22:49.170Z,27.19
2022-08-19T14:23:52.154Z,27.19
2022-08-19T14:24:55.444Z,27.19
2022-08-19T14:26:30.285Z,27.13
2022-08-19T14:27:36.707Z,27.06
2022-08-19T14:28:39.975Z,27.00
2022-08-19T14:30:15.016Z,26.94
2022-08-19T14:31:18.312Z,26.88
2022-08-19T14:32:27.762Z,26.81
2022-08-19T14:34:09.019Z,26.63
2022-08-19T14:35:12.162Z,26.50
2022-08-19T14:36:15.005Z,26.38
2022-08-19T14:38:03.468Z,26.13
2022-08-19T14:39:17.817Z,26.00
2022-08-19T14:40:22.152Z,25.94
2022-08-19T14:41:57.308Z,25.81
2022-08-19T14:43:03.368Z,25.75
2022-08-19T14:44:09.929Z,25.63
2022-08-19T14:45:45.257Z,25.50
2022-08-19T14:46:51.895Z,25.44
2022-08-19T14:48:07.597Z,25.25
2022-08-19T14:50:17.785Z,25.13
2022-08-19T14:51:21.492Z,25.13
2022-08-19T14:52:24.853Z,25.06
2022-08-19T14:54:00.225Z,25.00
2022-08-19T14:55:07.477Z,24.94
2022-08-19T14:56:10.909Z,24.81
2022-08-19T14:57:46.400Z,24.75
2022-08-19T14:59:14.010Z,24.63
2022-08-19T15:00:12.793Z,24.56
2022-08-19T15:01:17.616Z,24.56
2022-08-19T15:02:33.597Z,24.50
2022-08-19T15:04:10.599Z,24.44
2022-08-19T15:05:19.707Z,24.44
2022-08-19T15:06:22.658Z,24.38
2022-08-19T15:08:00.739Z,24.31
2022-08-19T15:09:04.446Z,24.31
2022-08-19T15:10:08.063Z,24.31
2022-08-19T15:11:43.142Z,24.25
2022-08-19T15:12:49.839Z,24.25
2022-08-19T15:13:55.237Z,24.25
2022-08-19T15:15:37.360Z,24.25
2022-08-19T15:16:40.332Z,24.25
2022-08-19T15:17:46.365Z,24.25
2022-08-19T15:19:21.903Z,24.19
2022-08-19T15:20:24.937Z,24.06
2022-08-19T15:21:30.553Z,24.06
2022-08-19T15:23:05.540Z,24.06
2022-08-19T15:24:08.504Z,24.06
2022-08-19T15:25:23.261Z,24.00
2022-08-19T15:27:02.430Z,24.06
2022-08-19T15:28:08.969Z,24.00
2022-08-19T15:29:11.994Z,24.00
2022-08-19T15:30:47.736Z,23.94
2022-08-19T15:32:05.873Z,23.94
2022-08-19T15:33:09.239Z,23.94
2022-08-19T15:34:44.226Z,23.94
2022-08-19T15:35:47.437Z,23.94
2022-08-19T15:36:53.886Z,23.88
2022-08-19T15:38:29.262Z,23.81
2022-08-19T15:39:37.974Z,23.81
2022-08-19T15:40:41.443Z,23.81
2022-08-19T15:42:30.001Z,23.81
2022-08-19T15:43:33.592Z,23.81
2022-08-19T15:44:38.177Z,23.81
2022-08-19T15:46:24.323Z,23.88
2022-08-19T15:47:27.125Z,23.94
2022-08-19T15:48:37.530Z,23.94
2022-08-19T15:50:20.975Z,23.94
2022-08-19T15:51:23.911Z,23.94
2022-08-19T15:52:26.709Z,23.94
2022-08-19T15:54:13.693Z,24.00
2022-08-19T15:55:32.604Z,24.06
2022-08-19T15:56:37.131Z,24.13
2022-08-19T15:58:28.252Z,24.19
2022-08-19T15:59:32.395Z,24.19
2022-08-19T16:00:12.388Z,24.25
2022-08-19T16:01:27.666Z,24.31
2022-08-19T16:02:38.902Z,24.44
2022-08-19T16:04:22.196Z,24.50
2022-08-19T16:05:41.529Z,24.50
2022-08-19T16:06:44.660Z,24.44
2022-08-19T16:07:47.733Z,24.38
2022-08-19T16:09:35.628Z,24.38
2022-08-19T16:11:07.138Z,24.31
2022-08-19T16:12:21.261Z,24.25
2022-08-19T16:13:56.475Z,24.25
2022-08-19T16:15:01.945Z,24.25
2022-08-19T16:16:05.561Z,24.19
2022-08-19T16:17:48.977Z,24.13
2022-08-19T16:19:00.257Z,24.00
2022-08-19T16:20:07.843Z,24.00
2022-08-19T16:21:48.064Z,24.00
2022-08-19T16:22:51.002Z,24.00
2022-08-19T16:23:53.947Z,24.00
2022-08-19T16:25:29.287Z,24.06
2022-08-19T16:26:32.387Z,24.00
2022-08-19T16:27:35.485Z,24.00
2022-08-19T16:29:39.461Z,24.00
2022-08-19T16:30:42.912Z,24.00
2022-08-19T16:31:51.788Z,24.00
2022-08-19T16:33:26.793Z,23.94
2022-08-19T16:34:29.793Z,23.88
2022-08-19T16:35:32.678Z,23.88
2022-08-19T16:37:24.996Z,23.81
2022-08-19T16:38:27.974Z,23.81
2022-08-19T16:39:30.906Z,23.75
2022-08-19T16:41:08.398Z,23.75
2022-08-19T16:42:11.281Z,23.75
2022-08-19T16:43:14.277Z,23.69
2022-08-19T16:44:49.205Z,23.69
2022-08-19T16:45:52.126Z,23.63
2022-08-19T16:47:02.167Z,23.63